Time;durP1;ratioP1;P1;durP2;ratioP2;P2;SDS_P1;SDS_P2;PMS_P1;PMS_P2;Temp;Humidity;BMP_temperature;BMP_pressure;BME280_temperature;BME280_humidity;BME280_pressure;Samples;Min_cycle;Max_cycle;Signal;HPM_P1;HPM_P2
2022/10/25 00:01:25;;;;;;;0.87;0.87;;;;;10.00;96163.00;;;;5115078;28;20209;-51
2022/10/25 00:03:52;;;;;;;0.60;0.60;;;;;10.00;96155.00;;;;5114942;28;20218;-52
2022/10/25 00:06:19;;;;;;;0.60;0.60;;;;;10.10;96153.00;;;;5114961;28;20209;-55
2022/10/25 00:08:48;;;;;;;0.60;0.60;;;;;10.10;96157.00;;;;5096771;28;20198;-52
2022/10/25 00:11:19;;;;;;;0.60;0.60;;;;;10.20;96159.00;;;;5114930;28;20213;-52
2022/10/25 00:13:46;;;;;;;0.47;0.47;;;;;10.20;96163.00;;;;5114846;28;20217;-52
2022/10/25 00:16:15;;;;;;;0.50;0.50;;;;;10.20;96167.00;;;;5114730;28;20226;-52
2022/10/25 00:18:44;;;;;;;0.70;0.70;;;;;10.30;96162.00;;;;5114615;28;20238;-53
2022/10/25 00:21:11;;;;;;;0.70;0.70;;;;;10.30;96159.00;;;;5114560;28;20553;-52
2022/10/25 00:23:38;;;;;;;0.50;0.50;;;;;10.30;96145.00;;;;5114664;28;20621;-52
2022/10/25 00:26:06;;;;;;;0.60;0.60;;;;;10.30;96143.00;;;;5114251;28;20625;-52
2022/10/25 00:28:33;;;;;;;1.30;0.73;;;;;10.40;96153.00;;;;5114704;28;20260;-52
2022/10/25 00:31:01;;;;;;;0.60;0.60;;;;;10.40;96149.00;;;;5114590;28;20194;-52
2022/10/25 00:33:30;;;;;;;0.50;0.50;;;;;10.30;96150.00;;;;5114336;28;20225;-51
2022/10/25 00:36:02;;;;;;;0.67;0.67;;;;;10.30;96134.00;;;;5114419;28;20209;-52
2022/10/25 00:38:29;;;;;;;0.80;0.80;;;;;10.30;96132.00;;;;5114604;28;20226;-52
2022/10/25 00:40:56;;;;;;;1.20;1.20;;;;;10.30;96139.00;;;;5114390;28;20190;-53
2022/10/25 00:43:31;;;;;;;0.63;0.63;;;;;10.40;96131.00;;;;5096202;28;20586;-51
2022/10/25 00:45:59;;;;;;;2.00;0.93;;;;;10.30;96138.00;;;;5114406;28;20224;-52
2022/10/25 00:48:26;;;;;;;0.60;0.60;;;;;10.30;96141.00;;;;5096254;28;20625;-51
2022/10/25 00:50:54;;;;;;;0.70;0.70;;;;;10.20;96133.00;;;;5114345;28;20265;-52
2022/10/25 00:53:27;;;;;;;0.50;0.50;;;;;10.20;96134.00;;;;5114264;28;20197;-52
2022/10/25 00:56:01;;;;;;;1.30;1.20;;;;;10.20;96133.00;;;;5096120;28;20660;-52
2022/10/25 00:58:30;;;;;;;0.57;0.57;;;;;10.10;96128.00;;;;5114355;28;20231;-52
2022/10/25 01:00:57;;;;;;;0.63;0.63;;;;;10.10;96133.00;;;;5096020;28;20318;-52
2022/10/25 01:03:24;;;;;;;0.80;0.80;;;;;10.10;96134.00;;;;5114052;28;20202;-52
2022/10/25 01:05:53;;;;;;;0.70;0.70;;;;;10.10;96129.00;;;;5114235;28;20540;-57
2022/10/25 01:08:21;;;;;;;0.60;0.60;;;;;10.10;96131.00;;;;5114012;28;20216;-54
2022/10/25 01:10:51;;;;;;;0.63;0.63;;;;;10.10;96132.00;;;;5114017;28;20217;-52
2022/10/25 01:13:17;;;;;;;0.40;0.40;;;;;10.00;96128.00;;;;5113927;28;20186;-53
2022/10/25 01:15:56;;;;;;;0.93;0.93;;;;;10.00;96132.00;;;;5113829;28;20209;-52
2022/10/25 01:18:33;;;;;;;0.80;0.80;;;;;10.10;96130.00;;;;5113797;28;20209;-52
2022/10/25 01:21:39;;;;;;;0.80;0.80;;;;;10.10;96128.00;;;;5113823;28;20212;-52
2022/10/25 01:24:42;;;;;;;0.50;0.50;;;;;10.20;96127.00;;;;5113749;28;20228;-54
2022/10/25 01:27:35;;;;;;;0.70;0.70;;;;;10.20;96123.00;;;;5110180;28;20217;-52
2022/10/25 01:30:12;;;;;;;0.60;0.60;;;;;10.20;96135.00;;;;5113628;28;20230;-53
2022/10/25 01:32:49;;;;;;;0.70;0.70;;;;;10.10;96135.00;;;;5113792;28;20193;-53
2022/10/25 01:35:26;;;;;;;0.83;0.83;;;;;10.10;96124.00;;;;5113618;28;20217;-52
2022/10/25 01:38:19;;;;;;;0.80;0.80;;;;;10.20;96133.00;;;;5116013;28;20225;-52
2022/10/25 01:40:55;;;;;;;0.50;0.50;;;;;10.20;96138.00;;;;5117277;28;20217;-51
2022/10/25 01:43:28;;;;;;;0.90;0.90;;;;;10.00;96132.00;;;;5117321;28;20185;-53
2022/10/25 01:46:01;;;;;;;0.70;0.70;;;;;10.00;96125.00;;;;5117376;28;20221;-51
2022/10/25 01:48:35;;;;;;;0.93;0.93;;;;;10.10;96138.00;;;;5117177;28;20206;-51
2022/10/25 01:51:09;;;;;;;0.70;0.70;;;;;10.10;96137.00;;;;5117132;28;20220;-52
2022/10/25 01:53:44;;;;;;;0.63;0.63;;;;;10.00;96136.00;;;;5117331;28;20201;-52
2022/10/25 01:56:18;;;;;;;0.90;0.90;;;;;10.00;96133.00;;;;5117228;28;20349;-51
2022/10/25 01:59:11;;;;;;;1.00;1.00;;;;;10.00;96128.00;;;;5117037;28;20190;-52
2022/10/25 02:01:45;;;;;;;0.63;0.63;;;;;10.00;96135.00;;;;5108805;28;20213;-51
2022/10/25 02:04:23;;;;;;;0.60;0.60;;;;;9.90;96141.00;;;;5116959;28;20674;-52
2022/10/25 02:07:01;;;;;;;0.70;0.70;;;;;10.00;96135.00;;;;5116897;28;20262;-52
2022/10/25 02:09:32;;;;;;;0.50;0.50;;;;;10.00;96136.00;;;;5116994;28;20214;-52
2022/10/25 02:12:00;;;;;;;0.93;0.93;;;;;9.90;96139.00;;;;5116855;28;20194;-52
2022/10/25 02:14:31;;;;;;;0.70;0.70;;;;;10.00;96131.00;;;;5116696;28;20224;-52
2022/10/25 02:17:03;;;;;;;0.60;0.60;;;;;9.90;96134.00;;;;5116791;28;20221;-57
2022/10/25 02:19:34;;;;;;;0.50;0.50;;;;;9.80;96134.00;;;;5116684;28;20290;-52
2022/10/25 02:22:02;;;;;;;3.20;1.00;;;;;9.90;96131.00;;;;5116991;28;20236;-52
2022/10/25 02:24:31;;;;;;;0.70;0.70;;;;;9.90;96126.00;;;;5116566;28;20201;-54
2022/10/25 02:26:59;;;;;;;3.10;1.03;;;;;9.90;96125.00;;;;5116618;28;20262;-52
2022/10/25 02:29:29;;;;;;;0.53;0.53;;;;;9.90;96129.00;;;;5116637;28;20619;-52
2022/10/25 02:31:56;;;;;;;0.60;0.60;;;;;9.90;96123.00;;;;5116462;28;20205;-52
2022/10/25 02:34:23;;;;;;;0.60;0.60;;;;;9.90;96129.00;;;;5098537;28;20221;-52
2022/10/25 02:36:52;;;;;;;4.13;1.87;;;;;9.90;96117.00;;;;5098297;28;20236;-52
2022/10/25 02:39:21;;;;;;;0.60;0.60;;;;;9.90;96117.00;;;;5116548;28;20208;-55
2022/10/25 02:45:35;;;;;;;0.50;0.50;;;;;9.90;96122.00;;;;5116253;28;20363;-58
2022/10/25 02:48:04;;;;;;;0.60;0.60;;;;;10.00;96118.00;;;;5115998;28;20734;-51
2022/10/25 02:50:31;;;;;;;1.23;1.20;;;;;9.80;96114.00;;;;5116138;28;20251;-52
2022/10/25 02:52:58;;;;;;;0.87;0.77;;;;;9.70;96115.00;;;;5115949;28;20320;-54
2022/10/25 02:55:25;;;;;;;0.70;0.70;;;;;9.80;96119.00;;;;5116123;28;20178;-52
2022/10/25 02:57:52;;;;;;;0.70;0.70;;;;;9.70;96114.00;;;;5115970;28;20222;-51
2022/10/25 03:00:19;;;;;;;0.60;0.60;;;;;9.60;96112.00;;;;5116016;28;20251;-51
2022/10/25 03:02:45;;;;;;;0.50;0.50;;;;;9.70;96111.00;;;;5097941;28;20217;-52
2022/10/25 03:05:12;;;;;;;0.67;0.67;;;;;9.70;96114.00;;;;5115922;28;20537;-52
2022/10/25 03:07:39;;;;;;;0.60;0.60;;;;;9.50;96115.00;;;;5115811;28;20205;-51
2022/10/25 03:10:07;;;;;;;0.70;0.70;;;;;9.30;96115.00;;;;5115798;28;20217;-52
2022/10/25 03:12:34;;;;;;;0.43;0.43;;;;;9.50;96106.00;;;;5115865;28;20216;-54
2022/10/25 03:15:01;;;;;;;0.70;0.70;;;;;9.80;96110.00;;;;5115702;28;20512;-52
2022/10/25 03:17:27;;;;;;;0.70;0.70;;;;;9.70;96112.00;;;;5115671;28;20210;-52
2022/10/25 03:19:54;;;;;;;0.87;0.87;;;;;9.70;96119.00;;;;5115712;28;20318;-51
2022/10/25 03:22:21;;;;;;;0.60;0.60;;;;;9.80;96111.00;;;;5115666;28;20214;-52
2022/10/25 03:24:48;;;;;;;0.50;0.50;;;;;9.90;96115.00;;;;5115609;28;20496;-52
2022/10/25 03:27:16;;;;;;;0.50;0.50;;;;;9.90;96121.00;;;;5115566;28;20237;-52
2022/10/25 03:29:43;;;;;;;0.60;0.60;;;;;9.80;96125.00;;;;5115610;28;20198;-51
2022/10/25 03:32:12;;;;;;;1.23;1.17;;;;;9.70;96111.00;;;;5115435;28;20218;-51
2022/10/25 03:34:39;;;;;;;0.70;0.70;;;;;9.70;96120.00;;;;5115658;28;20199;-53
2022/10/25 03:37:05;;;;;;;0.60;0.60;;;;;9.70;96128.00;;;;5115298;28;20221;-52
2022/10/25 03:39:32;;;;;;;0.70;0.70;;;;;9.60;96136.00;;;;5097417;28;20279;-52
2022/10/25 03:41:59;;;;;;;0.53;0.53;;;;;9.70;96134.00;;;;5115384;28;20625;-52
2022/10/25 03:44:26;;;;;;;0.60;0.60;;;;;9.60;96135.00;;;;5115264;28;20222;-52
2022/10/25 03:46:53;;;;;;;0.57;0.57;;;;;9.70;96127.00;;;;5097330;28;20587;-52
2022/10/25 03:49:20;;;;;;;0.50;0.50;;;;;9.80;96122.00;;;;5115097;28;20656;-52
2022/10/25 03:51:47;;;;;;;0.63;0.63;;;;;9.80;96129.00;;;;5115377;28;20202;-52
2022/10/25 03:54:13;;;;;;;0.53;0.53;;;;;9.70;96135.00;;;;5115282;28;20229;-51
2022/10/25 03:56:40;;;;;;;0.60;0.60;;;;;9.70;96143.00;;;;5114965;28;20217;-51
2022/10/25 03:59:07;;;;;;;1.00;1.00;;;;;9.60;96140.00;;;;5114570;28;20202;-52
2022/10/25 04:01:34;;;;;;;0.70;0.70;;;;;9.60;96147.00;;;;5114632;28;20186;-53
2022/10/25 04:04:01;;;;;;;1.00;1.00;;;;;9.60;96143.00;;;;5114939;28;20194;-52
2022/10/25 04:06:28;;;;;;;0.67;0.67;;;;;9.50;96140.00;;;;5114886;28;20206;-52
2022/10/25 04:08:55;;;;;;;1.83;1.73;;;;;9.40;96151.00;;;;5114865;28;20185;-52
2022/10/25 04:11:24;;;;;;;0.87;0.87;;;;;9.40;96151.00;;;;5114920;28;20190;-52
2022/10/25 04:13:51;;;;;;;0.70;0.70;;;;;9.40;96151.00;;;;5114846;28;20501;-51
2022/10/25 04:16:18;;;;;;;0.80;0.80;;;;;9.40;96150.00;;;;5114574;28;20649;-55
2022/10/25 04:18:45;;;;;;;0.60;0.60;;;;;9.40;96143.00;;;;5114702;28;20189;-52
2022/10/25 04:21:12;;;;;;;2.63;1.37;;;;;9.30;96155.00;;;;5096972;28;20542;-53
2022/10/25 04:23:41;;;;;;;2.63;1.90;;;;;9.30;96150.00;;;;5114651;28;20194;-53
2022/10/25 04:26:13;;;;;;;0.80;0.80;;;;;9.30;96150.00;;;;5114776;28;20225;-54
2022/10/25 04:28:40;;;;;;;1.13;0.80;;;;;9.50;96145.00;;;;5114572;28;20205;-52
2022/10/25 04:31:09;;;;;;;0.70;0.70;;;;;9.50;96149.00;;;;5114454;28;20233;-52
2022/10/25 04:33:36;;;;;;;0.80;0.80;;;;;9.50;96150.00;;;;5114630;28;20205;-52
2022/10/25 04:36:03;;;;;;;0.60;0.60;;;;;9.60;96148.00;;;;5114364;28;20222;-54
2022/10/25 04:38:30;;;;;;;1.10;1.10;;;;;9.60;96145.00;;;;5114445;28;20197;-52
2022/10/25 04:40:59;;;;;;;0.60;0.60;;;;;9.60;96149.00;;;;5114219;28;20221;-52
2022/10/25 04:43:27;;;;;;;0.63;0.63;;;;;9.70;96140.00;;;;5114361;28;20198;-52
2022/10/25 04:45:54;;;;;;;0.80;0.80;;;;;9.70;96146.00;;;;5114272;28;20286;-52
2022/10/25 04:48:21;;;;;;;0.60;0.60;;;;;9.70;96147.00;;;;5114347;28;20205;-52
2022/10/25 04:50:48;;;;;;;0.60;0.60;;;;;9.60;96144.00;;;;5114209;28;20232;-52
2022/10/25 04:53:15;;;;;;;1.50;1.27;;;;;9.60;96149.00;;;;5114184;28;20216;-52
2022/10/25 04:55:42;;;;;;;0.70;0.70;;;;;9.40;96151.00;;;;5096184;28;20230;-52
2022/10/25 04:58:09;;;;;;;0.80;0.80;;;;;9.30;96144.00;;;;5114118;28;20233;-54
2022/10/25 05:00:36;;;;;;;1.60;1.50;;;;;9.30;96155.00;;;;5114056;28;20229;-52
2022/10/25 05:03:02;;;;;;;0.87;0.87;;;;;9.20;96144.00;;;;5114074;28;20198;-52
2022/10/25 05:05:29;;;;;;;0.60;0.60;;;;;9.20;96149.00;;;;5114046;28;20194;-52
2022/10/25 05:07:56;;;;;;;0.87;0.87;;;;;9.30;96148.00;;;;5114013;28;20198;-52
2022/10/25 05:10:23;;;;;;;1.10;1.10;;;;;9.30;96153.00;;;;5113776;28;20198;-52
2022/10/25 05:12:53;;;;;;;1.13;1.03;;;;;9.30;96152.00;;;;5112594;28;20222;-52
2022/10/25 05:15:19;;;;;;;0.57;0.57;;;;;9.40;96160.00;;;;5113873;28;20645;-52
2022/10/25 05:17:46;;;;;;;0.83;0.83;;;;;9.40;96154.00;;;;5113685;28;20213;-52
2022/10/25 05:20:13;;;;;;;0.67;0.67;;;;;9.40;96158.00;;;;5113794;28;20205;-52
2022/10/25 05:22:40;;;;;;;1.27;1.27;;;;;9.30;96160.00;;;;5113852;28;20247;-52
2022/10/25 05:25:07;;;;;;;0.90;0.90;;;;;9.30;96161.00;;;;5113863;28;20190;-51
2022/10/25 05:27:37;;;;;;;0.70;0.70;;;;;9.20;96168.00;;;;5095780;28;20217;-52
2022/10/25 05:30:05;;;;;;;0.70;0.70;;;;;9.20;96170.00;;;;5113669;28;20197;-52
2022/10/25 05:32:32;;;;;;;0.67;0.67;;;;;9.20;96164.00;;;;5113647;28;20272;-52
2022/10/25 05:34:59;;;;;;;1.43;1.33;;;;;9.20;96174.00;;;;5113682;28;20193;-51
2022/10/25 05:37:25;;;;;;;0.70;0.70;;;;;9.20;96167.00;;;;5113449;28;20290;-52
2022/10/25 05:39:52;;;;;;;0.70;0.70;;;;;9.20;96168.00;;;;5113687;28;20194;-53
2022/10/25 05:42:19;;;;;;;0.70;0.70;;;;;9.20;96177.00;;;;5113485;28;20217;-52
2022/10/25 05:44:46;;;;;;;0.60;0.60;;;;;9.20;96174.00;;;;5095725;28;20217;-54
2022/10/25 05:47:13;;;;;;;0.60;0.60;;;;;9.10;96178.00;;;;5113470;28;20274;-52
2022/10/25 05:49:41;;;;;;;0.60;0.60;;;;;9.20;96170.00;;;;5113534;28;20332;-52
2022/10/25 05:52:08;;;;;;;0.70;0.70;;;;;9.10;96176.00;;;;5113398;28;20257;-51
2022/10/25 05:54:35;;;;;;;0.70;0.70;;;;;9.00;96176.00;;;;5113431;28;20266;-52
2022/10/25 05:57:02;;;;;;;0.60;0.60;;;;;9.00;96174.00;;;;5113234;28;20229;-53
2022/10/25 05:59:28;;;;;;;4.17;1.27;;;;;9.10;96184.00;;;;5113434;28;20210;-52
2022/10/25 06:01:56;;;;;;;0.60;0.60;;;;;9.10;96195.00;;;;5095295;28;20225;-54
2022/10/25 06:04:23;;;;;;;1.23;0.73;;;;;9.00;96194.00;;;;5113200;28;20273;-53
2022/10/25 06:06:51;;;;;;;0.67;0.67;;;;;9.00;96180.00;;;;5113165;28;20222;-52
2022/10/25 06:09:17;;;;;;;0.47;0.47;;;;;9.00;96182.00;;;;5113275;28;20194;-52
2022/10/25 06:11:44;;;;;;;0.57;0.57;;;;;9.00;96176.00;;;;5113154;28;20194;-52
2022/10/25 06:14:11;;;;;;;1.23;1.17;;;;;9.00;96183.00;;;;5113189;28;20266;-52
2022/10/25 06:16:38;;;;;;;0.50;0.50;;;;;9.10;96171.00;;;;5112918;28;20229;-53
2022/10/25 06:19:05;;;;;;;0.50;0.50;;;;;9.10;96174.00;;;;5113023;28;20645;-53
2022/10/25 06:21:34;;;;;;;0.60;0.60;;;;;9.10;96180.00;;;;5113150;28;20186;-52
2022/10/25 06:24:01;;;;;;;0.50;0.50;;;;;9.30;96187.00;;;;5115572;28;20194;-51
2022/10/25 06:26:30;;;;;;;1.00;1.00;;;;;9.60;96187.00;;;;5098601;28;20210;-52
2022/10/25 06:28:58;;;;;;;0.57;0.57;;;;;9.70;96202.00;;;;5116519;28;20209;-53
2022/10/25 06:31:28;;;;;;;0.80;0.80;;;;;9.60;96193.00;;;;5116442;28;20265;-51
2022/10/25 06:33:55;;;;;;;0.83;0.83;;;;;9.50;96199.00;;;;5116402;28;20205;-52
2022/10/25 06:36:25;;;;;;;0.80;0.80;;;;;9.60;96195.00;;;;5098412;28;20210;-51
2022/10/25 06:38:52;;;;;;;0.80;0.80;;;;;9.50;96199.00;;;;5116318;28;20675;-51
2022/10/25 06:41:21;;;;;;;0.80;0.80;;;;;9.50;96197.00;;;;5116355;28;20197;-52
2022/10/25 06:43:48;;;;;;;0.60;0.60;;;;;9.50;96204.00;;;;5098302;28;20202;-52
2022/10/25 06:46:20;;;;;;;0.77;0.77;;;;;9.60;96206.00;;;;5116174;28;20190;-51
2022/10/25 06:48:47;;;;;;;0.70;0.70;;;;;9.60;96216.00;;;;5116003;28;20233;-51
2022/10/25 06:51:14;;;;;;;1.33;1.10;;;;;9.70;96216.00;;;;5116103;28;20228;-51
2022/10/25 06:53:44;;;;;;;1.43;1.00;;;;;9.70;96220.00;;;;5115920;28;20221;-51
2022/10/25 06:56:12;;;;;;;2.97;1.20;;;;;9.90;96235.00;;;;5097932;28;20525;-51
2022/10/25 06:58:41;;;;;;;0.60;0.60;;;;;9.90;96228.00;;;;5115836;28;20269;-51
2022/10/25 07:01:10;;;;;;;1.70;1.50;;;;;9.90;96239.00;;;;5097926;28;20633;-52
2022/10/25 07:03:37;;;;;;;0.73;0.73;;;;;9.90;96236.00;;;;5115858;28;20518;-52
2022/10/25 07:06:05;;;;;;;0.77;0.77;;;;;10.00;96234.00;;;;5115919;28;20190;-54
2022/10/25 07:08:32;;;;;;;1.07;1.07;;;;;10.10;96233.00;;;;5115721;28;20190;-50
2022/10/25 07:10:59;;;;;;;1.10;1.10;;;;;10.20;96238.00;;;;5115778;28;20214;-51
2022/10/25 07:13:26;;;;;;;0.77;0.77;;;;;10.20;96239.00;;;;5115805;28;20250;-51
2022/10/25 07:15:59;;;;;;;0.70;0.70;;;;;10.30;96244.00;;;;5115619;28;20259;-51
2022/10/25 07:18:26;;;;;;;0.80;0.80;;;;;10.40;96246.00;;;;5097624;28;20312;-52
2022/10/25 07:20:58;;;;;;;0.60;0.60;;;;;10.40;96243.00;;;;5115555;28;20210;-53
2022/10/25 07:23:25;;;;;;;0.50;0.50;;;;;10.50;96257.00;;;;5115471;28;20251;-52
2022/10/25 07:25:52;;;;;;;0.73;0.73;;;;;10.60;96263.00;;;;5097531;28;20197;-51
2022/10/25 07:28:22;;;;;;;0.60;0.60;;;;;10.70;96257.00;;;;5115273;28;20237;-51
2022/10/25 07:30:49;;;;;;;0.60;0.60;;;;;10.60;96264.00;;;;5115533;28;20558;-52
2022/10/25 07:33:18;;;;;;;0.87;0.87;;;;;10.60;96257.00;;;;5115328;28;20633;-52
2022/10/25 07:35:45;;;;;;;0.63;0.63;;;;;10.70;96262.00;;;;5114154;28;20272;-51
2022/10/25 07:38:12;;;;;;;1.33;0.80;;;;;10.80;96256.00;;;;5115284;28;20221;-53
2022/10/25 07:40:41;;;;;;;1.67;1.43;;;;;11.00;96265.00;;;;5115169;28;20275;-52
2022/10/25 07:43:09;;;;;;;0.63;0.63;;;;;11.10;96264.00;;;;5115188;28;20201;-52
2022/10/25 07:45:39;;;;;;;0.80;0.80;;;;;11.20;96266.00;;;;5097037;28;20715;-51
2022/10/25 07:48:05;;;;;;;1.17;1.17;;;;;11.30;96254.00;;;;5115311;28;21021;-54
2022/10/25 07:50:33;;;;;;;3.00;1.33;;;;;11.30;96255.00;;;;5115205;28;20194;-53
2022/10/25 07:53:00;;;;;;;1.90;1.27;;;;;11.40;96261.00;;;;5115052;28;20194;-53
2022/10/25 07:55:27;;;;;;;0.77;0.77;;;;;11.40;96265.00;;;;5096957;28;20206;-54
2022/10/25 07:57:59;;;;;;;0.50;0.50;;;;;11.70;96261.00;;;;5114871;28;20237;-54
2022/10/25 08:00:26;;;;;;;0.90;0.90;;;;;11.60;96256.00;;;;5114873;28;20190;-57
2022/10/25 08:02:56;;;;;;;0.70;0.70;;;;;11.70;96181.00;;;;5114758;28;20225;-51
2022/10/25 08:05:23;;;;;;;0.57;0.57;;;;;11.80;96260.00;;;;5114927;28;20213;-51
2022/10/25 08:07:50;;;;;;;1.17;1.17;;;;;11.90;96259.00;;;;5114788;28;20232;-53
2022/10/25 08:10:18;;;;;;;0.77;0.77;;;;;11.80;96257.00;;;;5114703;28;20190;-52
2022/10/25 08:12:45;;;;;;;0.60;0.60;;;;;11.90;96260.00;;;;5096839;28;20206;-51
2022/10/25 08:15:12;;;;;;;0.63;0.63;;;;;12.10;96253.00;;;;5114656;28;20300;-51
2022/10/25 08:17:38;;;;;;;0.90;0.90;;;;;12.20;96258.00;;;;5114613;28;20224;-51
2022/10/25 08:20:07;;;;;;;0.70;0.70;;;;;12.30;96257.00;;;;5114673;28;20282;-51
2022/10/25 08:22:33;;;;;;;0.77;0.77;;;;;12.40;96253.00;;;;5114573;28;20255;-52
2022/10/25 08:25:01;;;;;;;0.60;0.60;;;;;12.40;96251.00;;;;5114458;28;20197;-53
2022/10/25 08:27:31;;;;;;;0.83;0.83;;;;;12.60;96255.00;;;;5114410;28;20205;-52
2022/10/25 08:29:58;;;;;;;1.07;1.07;;;;;12.70;96246.00;;;;5114479;28;20217;-53
2022/10/25 08:32:24;;;;;;;0.50;0.50;;;;;12.60;96248.00;;;;5114384;28;20221;-52
2022/10/25 08:34:51;;;;;;;1.00;1.00;;;;;12.80;96248.00;;;;5114470;28;20273;-51
2022/10/25 08:37:19;;;;;;;0.67;0.67;;;;;12.90;96244.00;;;;5114200;28;20226;-52
2022/10/25 08:39:45;;;;;;;0.70;0.70;;;;;12.90;96251.00;;;;5114661;28;20200;-52
2022/10/25 08:42:21;;;;;;;1.43;1.43;;;;;13.10;96252.00;;;;5114400;28;20201;-52
2022/10/25 08:44:54;;;;;;;0.70;0.70;;;;;13.10;96248.00;;;;5114287;28;20624;-52
2022/10/25 08:47:28;;;;;;;0.53;0.53;;;;;13.10;96242.00;;;;5114044;28;20224;-51
2022/10/25 08:49:59;;;;;;;0.47;0.47;;;;;13.30;96239.00;;;;5096471;28;20200;-51
2022/10/25 08:52:31;;;;;;;0.67;0.67;;;;;13.30;96244.00;;;;5114386;28;20193;-52
2022/10/25 08:55:00;;;;;;;0.50;0.50;;;;;13.40;96245.00;;;;5114335;28;20218;-52
2022/10/25 08:57:29;;;;;;;0.80;0.80;;;;;13.40;96249.00;;;;5114132;28;20227;-52
2022/10/25 08:59:58;;;;;;;1.80;1.47;;;;;13.50;96250.00;;;;5113954;28;20189;-51
2022/10/25 09:02:35;;;;;;;0.90;0.90;;;;;13.80;96257.00;;;;5114165;28;20232;-53
2022/10/25 09:05:02;;;;;;;0.53;0.53;;;;;13.90;96266.00;;;;5114427;28;20234;-52
2022/10/25 09:07:57;;;;;;;0.67;0.67;;;;;14.00;96250.00;;;;5113995;28;20217;-54
2022/10/25 09:10:36;;;;;;;0.60;0.60;;;;;14.00;96267.00;;;;5105063;28;20210;-52
2022/10/25 09:13:11;;;;;;;0.70;0.70;;;;;14.10;96260.00;;;;5114017;28;20197;-52
2022/10/25 09:15:53;;;;;;;0.77;0.77;;;;;14.30;96258.00;;;;5095880;28;20265;-52
2022/10/25 09:18:26;;;;;;;0.50;0.50;;;;;14.10;96260.00;;;;5113894;28;20229;-52
2022/10/25 09:20:53;;;;;;;0.60;0.60;;;;;14.30;96259.00;;;;5095910;28;20198;-54
2022/10/25 09:23:27;;;;;;;0.50;0.50;;;;;14.50;96257.00;;;;5095813;28;20236;-52
2022/10/25 09:26:02;;;;;;;0.60;0.60;;;;;14.50;96254.00;;;;5113761;28;20197;-52
2022/10/25 09:28:50;;;;;;;0.50;0.50;;;;;14.80;96258.00;;;;5113658;28;20544;-51
2022/10/25 09:31:21;;;;;;;0.70;0.70;;;;;14.90;96261.00;;;;5113683;28;20197;-52
2022/10/25 09:33:55;;;;;;;1.03;1.03;;;;;15.00;96265.00;;;;5095899;28;20243;-52
2022/10/25 09:36:24;;;;;;;0.40;0.40;;;;;14.90;96266.00;;;;5113538;28;20206;-52
2022/10/25 09:38:56;;;;;;;0.53;0.53;;;;;14.90;96274.00;;;;5095525;28;20198;-52
2022/10/25 09:41:38;;;;;;;0.70;0.70;;;;;15.10;96274.00;;;;5095571;28;20316;-53
2022/10/25 09:44:11;;;;;;;0.60;0.60;;;;;15.20;96271.00;;;;5113541;28;20235;-52
2022/10/25 09:46:42;;;;;;;0.50;0.50;;;;;15.30;96265.00;;;;5113380;28;20213;-54
2022/10/25 09:49:26;;;;;;;0.50;0.50;;;;;15.30;96268.00;;;;5113539;28;20259;-52
2022/10/25 09:51:59;;;;;;;1.10;1.10;;;;;15.40;96270.00;;;;5113395;28;20225;-53
2022/10/25 09:54:34;;;;;;;0.50;0.50;;;;;15.30;96264.00;;;;5113399;28;20226;-53
2022/10/25 09:57:01;;;;;;;0.80;0.80;;;;;15.30;96272.00;;;;5113384;28;20575;-53
2022/10/25 09:59:28;;;;;;;0.63;0.63;;;;;15.00;96270.00;;;;5098452;28;20206;-54
2022/10/25 10:01:55;;;;;;;0.60;0.60;;;;;15.20;96265.00;;;;5099054;28;20230;-54
2022/10/25 10:04:32;;;;;;;0.40;0.40;;;;;15.40;96266.00;;;;5116816;28;20683;-53
2022/10/25 10:07:04;;;;;;;0.87;0.87;;;;;15.50;96270.00;;;;5116884;28;20205;-52
2022/10/25 10:09:34;;;;;;;0.60;0.60;;;;;15.50;96269.00;;;;5098797;28;20228;-52
2022/10/25 10:12:04;;;;;;;0.60;0.60;;;;;15.50;96267.00;;;;5116931;28;20288;-52
2022/10/25 10:14:38;;;;;;;0.70;0.70;;;;;15.20;96266.00;;;;5116569;28;20608;-53
2022/10/25 10:17:10;;;;;;;0.73;0.73;;;;;15.40;96276.00;;;;5116596;28;20221;-53
2022/10/25 10:19:37;;;;;;;0.50;0.50;;;;;15.10;96267.00;;;;5098736;28;20537;-52
2022/10/25 10:22:10;;;;;;;1.47;1.33;;;;;15.20;96262.00;;;;5116591;28;20213;-52
2022/10/25 10:24:41;;;;;;;0.50;0.50;;;;;15.30;96264.00;;;;5116651;28;20213;-52
2022/10/25 10:27:09;;;;;;;1.27;1.27;;;;;15.60;96260.00;;;;5116517;28;20222;-52
2022/10/25 10:29:38;;;;;;;0.97;0.90;;;;;15.60;96261.00;;;;5116449;28;20194;-53
2022/10/25 10:32:21;;;;;;;5.30;1.13;;;;;15.60;96261.00;;;;5116367;28;20631;-52
2022/10/25 10:34:53;;;;;;;0.60;0.60;;;;;15.60;96259.00;;;;5116340;28;20220;-52
2022/10/25 10:37:22;;;;;;;0.77;0.77;;;;;15.60;96249.00;;;;5098259;28;20225;-52
2022/10/25 10:39:51;;;;;;;0.50;0.50;;;;;15.90;96248.00;;;;5116278;28;20487;-52
2022/10/25 10:42:19;;;;;;;0.60;0.60;;;;;16.00;96235.00;;;;5116283;28;20182;-52
2022/10/25 10:45:03;;;;;;;1.10;1.00;;;;;16.10;96238.00;;;;5098199;28;20822;-52
2022/10/25 10:47:33;;;;;;;0.60;0.60;;;;;16.20;96240.00;;;;5116329;28;20202;-52
2022/10/25 10:50:01;;;;;;;0.50;0.50;;;;;16.10;96239.00;;;;5116213;28;20218;-53
2022/10/25 10:52:35;;;;;;;0.50;0.50;;;;;16.50;96230.00;;;;5116046;28;20190;-53
2022/10/25 10:55:03;;;;;;;0.60;0.60;;;;;16.70;96230.00;;;;5116307;28;20257;-52
2022/10/25 10:57:33;;;;;;;0.50;0.50;;;;;16.90;96220.00;;;;5098390;28;20225;-52
2022/10/25 11:00:01;;;;;;;0.70;0.70;;;;;17.20;96222.00;;;;5116125;28;20277;-53
2022/10/25 11:02:36;;;;;;;0.60;0.60;;;;;17.20;96212.00;;;;5116025;28;20252;-52
2022/10/25 11:05:19;;;;;;;0.60;0.60;;;;;17.70;96219.00;;;;5115988;28;20194;-52
2022/10/25 11:07:56;;;;;;;0.60;0.60;;;;;17.50;96214.00;;;;5115928;28;20664;-51
2022/10/25 11:10:29;;;;;;;0.60;0.60;;;;;17.70;96207.00;;;;5115782;28;20267;-53
2022/10/25 11:13:08;;;;;;;8.00;0.83;;;;;17.60;96208.00;;;;5116070;28;20290;-54
2022/10/25 11:15:51;;;;;;;0.80;0.80;;;;;17.70;96210.00;;;;5098275;28;20300;-54
2022/10/25 11:18:33;;;;;;;0.50;0.50;;;;;17.20;96218.00;;;;5115831;28;20229;-51
2022/10/25 11:21:06;;;;;;;0.50;0.50;;;;;17.80;96219.00;;;;5115761;28;20201;-51
2022/10/25 11:23:41;;;;;;;0.57;0.57;;;;;17.90;96216.00;;;;5115832;28;20194;-51
2022/10/25 11:26:14;;;;;;;0.50;0.50;;;;;18.50;96213.00;;;;5097579;28;20203;-53
2022/10/25 11:28:50;;;;;;;0.40;0.40;;;;;18.50;96213.00;;;;5115733;28;20210;-53
2022/10/25 11:31:23;;;;;;;0.90;0.90;;;;;18.70;96213.00;;;;5115505;28;20293;-52
2022/10/25 11:34:06;;;;;;;0.50;0.50;;;;;19.20;96236.00;;;;5115525;28;20194;-56
2022/10/25 11:36:47;;;;;;;0.50;0.50;;;;;18.50;96236.00;;;;5115343;28;20228;-52
2022/10/25 11:39:27;;;;;;;0.40;0.40;;;;;18.40;96245.00;;;;5115488;28;20198;-51
2022/10/25 11:42:04;;;;;;;0.70;0.70;;;;;18.30;96213.00;;;;5115429;28;20225;-51
2022/10/25 11:45:04;;;;;;;0.60;0.53;;;;;18.70;96217.00;;;;5115395;28;20265;-52
2022/10/25 11:47:42;;;;;;;0.50;0.50;;;;;18.30;96234.00;;;;5115115;28;20218;-52
2022/10/25 11:50:28;;;;;;;0.50;0.50;;;18.20;50.20;17.80;96233.00;;;;5097295;28;20280;-51
2022/10/25 11:53:39;;;;;;;0.87;0.87;;;17.90;55.20;17.50;96236.00;;;;5115292;28;20205;-56
2022/10/25 11:56:19;;;;;;;1.60;0.60;;;18.10;57.50;17.30;96229.00;;;;5115076;28;20584;-51
2022/10/25 11:58:58;;;;;;;0.90;0.90;;;17.90;57.80;17.80;96235.00;;;;5115189;28;20252;-52
2022/10/25 12:01:43;;;;;;;0.60;0.60;;;18.20;57.40;17.80;96218.00;;;;5115056;28;20698;-54
2022/10/25 12:04:34;;;;;;;0.80;0.80;;;18.20;58.10;18.10;96234.00;;;;5115170;28;20236;-53
2022/10/25 12:07:13;;;;;;;0.40;0.40;;;18.40;57.20;19.10;96195.00;;;;5096830;28;20208;-52
2022/10/25 12:09:58;;;;;;;1.60;0.73;;;19.50;54.20;19.40;96238.00;;;;5114865;28;20288;-53
2022/10/25 12:12:41;;;;;;;0.60;0.60;;;19.60;53.80;19.20;96233.00;;;;5114860;28;20254;-57
2022/10/25 12:15:19;;;;;;;0.50;0.50;;;19.50;53.80;19.10;96234.00;;;;5114814;28;20198;-53
2022/10/25 12:17:46;;;;;;;0.80;0.80;;;19.40;52.70;18.80;96241.00;;;;5114500;28;20225;-54
2022/10/25 12:20:23;;;;;;;0.50;0.50;;;19.30;53.40;19.30;96216.00;;;;5114227;28;20288;-54
2022/10/25 12:22:57;;;;;;;0.67;0.67;;;19.50;53.50;21.20;96192.00;;;;5114539;28;20218;-54
2022/10/25 12:25:28;;;;;;;0.40;0.40;;;;;21.90;96234.00;;;;5096729;28;20225;-53
2022/10/25 12:28:05;;;;;;;2.17;0.60;;;21.60;45.10;22.70;96180.00;;;;5114443;28;20230;-52
2022/10/25 12:30:34;;;;;;;0.37;0.37;;;22.30;43.20;22.90;96183.00;;;;5114493;28;20203;-52
2022/10/25 12:33:10;;;;;;;0.40;0.40;;;;;23.20;96223.00;;;;5114429;28;20190;-52
2022/10/25 12:35:47;;;;;;;0.40;0.40;;;22.80;37.50;21.70;96178.00;;;;5114425;28;20200;-52
2022/10/25 12:38:24;;;;;;;0.43;0.43;;;22.20;39.60;23.00;96176.00;;;;5114324;28;20248;-54